Time;durP1;ratioP1;P1;durP2;ratioP2;P2;SDS_P1;SDS_P2;PMS_P1;PMS_P2;Temp;Humidity;BMP_temperature;BMP_pressure;BME280_temperature;BME280_humidity;BME280_pressure;Samples;Min_cycle;Max_cycle;Signal;HPM_P1;HPM_P2
2022/05/21 00:02:11;;;;;;;;;;;;;;;;;;5131701;28;19955;-70
2022/05/21 00:04:41;;;;;;;;;;;;;;;;;;5132136;28;19908;-70
2022/05/21 00:07:07;;;;;;;;;;;;;;;;;;5132081;27;19916;-70
2022/05/21 00:10:53;;;;;;;;;;;;;;;;;;5091016;28;19925;-68
2022/05/21 00:15:21;;;;;;;;;;;;;;;;;;5091410;28;20369;-69
2022/05/21 00:19:31;;;;;;;;;;;;;;;;;;5092153;27;19916;-69
2022/05/21 00:21:57;;;;;;;;;;;;;;;;;;5091267;28;20460;-69
2022/05/21 00:24:23;;;;;;;;;;;;;;;;;;5090872;28;19908;-69
2022/05/21 00:26:49;;;;;;;;;;;;;;;;;;5091533;28;19948;-70
2022/05/21 00:29:15;;;;;;;;;;;;;;;;;;5091866;28;19916;-69
2022/05/21 00:31:41;;;;;;;;;;;;;;;;;;5090728;28;19943;-68
2022/05/21 00:34:07;;;;;;;;;;;;;;;;;;5089788;28;19916;-69
2022/05/21 00:36:33;;;;;;;;;;;;;;;;;;5091004;28;19909;-69
2022/05/21 00:39:37;;;;;;;;;;;;;;;;;;5111851;27;20007;-68
2022/05/21 00:42:03;;;;;;;;;;;;;;;;;;5111587;28;19947;-69
2022/05/21 00:44:28;;;;;;;;;;;;;;;;;;5092977;28;19915;-69
2022/05/21 00:46:54;;;;;;;;;;;;;;;;;;5111682;28;19991;-68
2022/05/21 00:49:20;;;;;;;;;;;;;;;;;;5111510;28;19915;-70
2022/05/21 00:51:46;;;;;;;;;;;;;;;;;;5111015;28;19911;-70
2022/05/21 00:54:12;;;;;;;;;;;;;;;;;;5111606;28;20005;-70
2022/05/21 00:56:38;;;;;;;;;;;;;;;;;;5111404;28;19915;-68
2022/05/21 01:01:49;;;;;;;;;;;;;;;;;;5111332;28;20004;-68
2022/05/21 01:04:15;;;;;;;;;;;;;;;;;;5111247;28;20378;-68
2022/05/21 01:06:41;;;;;;;;;;;;;;;;;;5110725;28;19908;-71
2022/05/21 01:09:07;;;;;;;;;;;;;;;;;;5111351;28;19943;-69
2022/05/21 01:11:33;;;;;;;;;;;;;;;;;;5111073;28;19908;-69
2022/05/21 01:13:59;;;;;;;;;;;;;;;;;;5110632;28;19908;-69
2022/05/21 01:16:25;;;;;;;;;;;;;;;;;;5111001;28;19912;-69
2022/05/21 01:18:51;;;;;;;;;;;;;;;;;;5110966;28;20032;-69
2022/05/21 01:21:17;;;;;;;;;;;;;;;;;;5110555;28;19908;-69
2022/05/21 01:23:42;;;;;;;;;;;;;;;;;;5111343;28;19908;-70
2022/05/21 01:26:08;;;;;;;;;;;;;;;;;;5111114;28;20003;-69
2022/05/21 01:28:34;;;;;;;;;;;;;;;;;;5092107;28;19908;-69
2022/05/21 01:31:00;;;;;;;;;;;;;;;;;;5110685;28;20373;-69
2022/05/21 01:33:26;;;;;;;;;;;;;;;;;;5110392;28;19914;-69
2022/05/21 01:35:52;;;;;;;;;;;;;;;;;;5110656;28;20356;-69
2022/05/21 01:38:18;;;;;;;;;;;;;;;;;;5110634;28;20333;-69
2022/05/21 01:40:44;;;;;;;;;;;;;;;;;;5110339;28;19999;-69
2022/05/21 01:45:55;;;;;;;;;;;;;;;;;;5110474;28;19918;-69
2022/05/21 01:48:21;;;;;;;;;;;;;;;;;;5109939;28;19998;-69
2022/05/21 01:50:47;;;;;;;;;;;;;;;;;;5097654;28;20431;-69
2022/05/21 01:53:13;;;;;;;;;;;;;;;;;;5096717;28;20007;-69
2022/05/21 01:55:39;;;;;;;;;;;;;;;;;;5096289;28;20308;-69
2022/05/21 01:58:05;;;;;;;;;;;;;;;;;;5096704;28;19920;-69
2022/05/21 02:00:31;;;;;;;;;;;;;;;;;;5096587;28;19915;-69
2022/05/21 02:02:56;;;;;;;;;;;;;;;;;;5096092;28;19908;-69
2022/05/21 02:05:22;;;;;;;;;;;;;;;;;;5096511;28;20011;-69
2022/05/21 02:07:48;;;;;;;;;;;;;;;;;;5096387;28;19908;-69
2022/05/21 02:10:14;;;;;;;;;;;;;;;;;;5095991;28;19915;-69
2022/05/21 02:12:40;;;;;;;;;;;;;;;;;;5096409;28;19999;-69
2022/05/21 02:15:06;;;;;;;;;;;;;;;;;;5096281;28;19908;-69
2022/05/21 02:17:32;;;;;;;;;;;;;;;;;;5095841;28;19918;-69
2022/05/21 02:19:58;;;;;;;;;;;;;;;;;;5096816;28;19912;-69
2022/05/21 02:22:24;;;;;;;;;;;;;;;;;;5096174;28;20299;-69
2022/05/21 02:24:50;;;;;;;;;;;;;;;;;;5095736;28;20341;-69
2022/05/21 02:27:16;;;;;;;;;;;;;;;;;;5096065;28;19908;-69
2022/05/21 02:29:42;;;;;;;;;;;;;;;;;;5095638;28;20018;-69
2022/05/21 02:32:08;;;;;;;;;;;;;;;;;;5096244;28;19908;-69
2022/05/21 02:34:34;;;;;;;;;;;;;;;;;;5096130;28;19915;-69
2022/05/21 02:39:45;;;;;;;;;;;;;;;;;;5095825;28;19931;-69
2022/05/21 02:44:56;;;;;;;;;;;;;;;;;;5095460;28;19915;-69
2022/05/21 02:47:22;;;;;;;;;;;;;;;;;;5077598;28;19912;-69
2022/05/21 02:49:48;;;;;;;;;;;;;;;;;;5095664;28;19961;-69
2022/05/21 02:52:15;;;;;;;;;;;;;;;;;;5095178;28;19915;-69
2022/05/21 02:54:41;;;;;;;;;;;;;;;;;;5095696;28;20280;-69
2022/05/21 02:57:06;;;;;;;;;;;;;;;;;;5095737;28;19915;-69
2022/05/21 02:59:32;;;;;;;;;;;;;;;;;;5095030;28;20002;-69
2022/05/21 03:01:58;;;;;;;;;;;;;;;;;;5094956;28;19953;-69
2022/05/21 03:04:24;;;;;;;;;;;;;;;;;;5095611;28;19912;-69
2022/05/21 03:06:50;;;;;;;;;;;;;;;;;;5094966;28;20352;-69
2022/05/21 03:12:01;;;;;;;;;;;;;;;;;;5094853;28;19961;-69
2022/05/21 03:14:27;;;;;;;;;;;;;;;;;;5095191;28;19912;-69
2022/05/21 03:16:59;;;;;;;;;;;;;;;;;;5095154;28;19908;-69
2022/05/21 03:19:25;;;;;;;;;;;;;;;;;;5094581;28;19920;-69
2022/05/21 03:21:51;;;;;;;;;;;;;;;;;;5095019;28;19914;-69
2022/05/21 03:24:17;;;;;;;;;;;;;;;;;;5095021;28;20356;-70
2022/05/21 03:26:43;;;;;;;;;;;;;;;;;;5094579;28;20437;-69
2022/05/21 03:29:09;;;;;;;;;;;;;;;;;;5094932;28;20292;-69
2022/05/21 03:31:34;;;;;;;;;;;;;;;;;;5094881;28;20132;-69
2022/05/21 03:34:00;;;;;;;;;;;;;;;;;;5094431;28;19915;-69
2022/05/21 03:36:26;;;;;;;;;;;;;;;;;;5095127;28;19994;-69
2022/05/21 03:38:52;;;;;;;;;;;;;;;;;;5094557;28;19939;-69
2022/05/21 03:41:18;;;;;;;;;;;;;;;;;;5094264;28;20271;-69
2022/05/21 03:43:44;;;;;;;;;;;;;;;;;;5094644;28;19969;-69
2022/05/21 03:46:10;;;;;;;;;;;;;;;;;;5094594;28;20368;-69
2022/05/21 03:48:36;;;;;;;;;;;;;;;;;;5094126;28;20007;-69
2022/05/21 03:51:02;;;;;;;;;;;;;;;;;;5094484;28;19931;-69
2022/05/21 03:53:28;;;;;;;;;;;;;;;;;;5094494;28;19911;-69
2022/05/21 03:55:54;;;;;;;;;;;;;;;;;;5094007;28;19908;-68
2022/05/21 03:58:20;;;;;;;;;;;;;;;;;;5094217;28;19912;-68
2022/05/21 04:00:46;;;;;;;;;;;;;;;;;;5094355;28;19908;-69
2022/05/21 04:03:12;;;;;;;;;;;;;;;;;;5093898;28;19953;-68
2022/05/21 04:05:38;;;;;;;;;;;;;;;;;;5094476;28;19914;-69
2022/05/21 04:08:04;;;;;;;;;;;;;;;;;;5093841;28;19931;-69
2022/05/21 04:10:30;;;;;;;;;;;;;;;;;;5094082;28;19908;-68
2022/05/21 04:12:56;;;;;;;;;;;;;;;;;;5094046;28;19923;-69
2022/05/21 04:15:22;;;;;;;;;;;;;;;;;;5093810;28;20265;-69
2022/05/21 04:17:48;;;;;;;;;;;;;;;;;;5094248;28;19912;-69
2022/05/21 04:20:14;;;;;;;;;;;;;;;;;;5094110;28;20279;-69
2022/05/21 04:22:40;;;;;;;;;;;;;;;;;;5093653;28;19990;-69
2022/05/21 04:25:06;;;;;;;;;;;;;;;;;;5093994;28;20427;-69
2022/05/21 04:27:32;;;;;;;;;;;;;;;;;;5094288;28;19981;-69
2022/05/21 04:29:58;;;;;;;;;;;;;;;;;;5093470;28;19912;-69
2022/05/21 04:32:24;;;;;;;;;;;;;;;;;;5093993;28;19915;-69
2022/05/21 04:34:50;;;;;;;;;;;;;;;;;;5093884;28;19908;-69
2022/05/21 04:37:16;;;;;;;;;;;;;;;;;;5093217;28;19960;-67
2022/05/21 04:39:42;;;;;;;;;;;;;;;;;;5094057;28;19908;-69
2022/05/21 04:42:08;;;;;;;;;;;;;;;;;;5075747;28;19908;-69
2022/05/21 04:44:35;;;;;;;;;;;;;;;;;;5093503;28;19908;-68
2022/05/21 04:47:02;;;;;;;;;;;;;;;;;;5093724;28;20006;-69
2022/05/21 04:49:28;;;;;;;;;;;;;;;;;;5093717;28;19909;-69
2022/05/21 04:51:54;;;;;;;;;;;;;;;;;;5093477;28;20398;-69
2022/05/21 04:54:20;;;;;;;;;;;;;;;;;;5094020;28;20364;-69
2022/05/21 04:56:46;;;;;;;;;;;;;;;;;;5094307;28;20316;-69
2022/05/21 04:59:12;;;;;;;;;;;;;;;;;;5093250;28;20323;-69
2022/05/21 05:01:39;;;;;;;;;;;;;;;;;;5093657;28;19939;-69
2022/05/21 05:04:04;;;;;;;;;;;;;;;;;;5093572;28;20211;-69
2022/05/21 05:06:30;;;;;;;;;;;;;;;;;;5093215;28;19908;-69
2022/05/21 05:08:56;;;;;;;;;;;;;;;;;;5093526;28;19915;-70
2022/05/21 05:11:23;;;;;;;;;;;;;;;;;;5075105;28;19919;-69
2022/05/21 05:13:49;;;;;;;;;;;;;;;;;;5093434;28;19908;-69
2022/05/21 05:16:15;;;;;;;;;;;;;;;;;;5093639;28;19912;-69
2022/05/21 05:18:41;;;;;;;;;;;;;;;;;;5074853;28;19920;-69
2022/05/21 05:21:07;;;;;;;;;;;;;;;;;;5093498;28;20006;-69
2022/05/21 05:23:33;;;;;;;;;;;;;;;;;;5093495;28;19916;-69
2022/05/21 05:27:15;;;;;;;;;;;;;;;;;;5091143;27;19916;-69
2022/05/21 05:29:41;;;;;;;;;;;;;;;;;;5091279;28;20006;-69
2022/05/21 05:33:07;;;;;;;;;;;;;;;;;;5091499;27;19922;-70
2022/05/21 05:36:51;;;;;;;;;;;;;;;;;;5091758;27;20392;-69
2022/05/21 05:39:17;;;;;;;;;;;;;;;;;;5091325;28;19912;-70
2022/05/21 05:41:43;;;;;;;;;;;;;;;;;;5090834;28;20003;-69
2022/05/21 05:44:09;;;;;;;;;;;;;;;;;;5091214;28;20420;-70
2022/05/21 05:47:18;;;;;;;;;;;;;;;;;;5091415;27;19923;-69
2022/05/21 05:49:44;;;;;;;;;;;;;;;;;;5091398;28;19912;-69
2022/05/21 05:52:10;;;;;;;;;;;;;;;;;;5091275;28;19912;-69
2022/05/21 05:54:37;;;;;;;;;;;;;;;;;;5090794;28;19908;-69
2022/05/21 05:57:44;;;;;;;;;;;;;;;;;;5091844;28;20415;-69
2022/05/21 06:00:10;;;;;;;;;;;;;;;;;;5091278;28;20007;-69
2022/05/21 06:04:19;;;;;;;;;;;;;;;;;;5071366;28;20296;-69
2022/05/21 06:06:45;;;;;;;;;;;;;;;;;;5069761;28;20000;-69
2022/05/21 06:10:02;;;;;;;;;;;;;;;;;;5091720;27;19922;-69
2022/05/21 06:12:28;;;;;;;;;;;;;;;;;;5091515;28;19919;-70
2022/05/21 06:14:54;;;;;;;;;;;;;;;;;;5090781;28;19908;-69
2022/05/21 06:17:20;;;;;;;;;;;;;;;;;;5091163;28;19934;-69
2022/05/21 06:19:46;;;;;;;;;;;;;;;;;;5091268;28;19908;-70
2022/05/21 06:27:12;;;;;;;;;;;;;;;;;;5091948;27;19913;-70
2022/05/21 06:29:38;;;;;;;;;;;;;;;;;;5091077;28;20342;-70
2022/05/21 06:33:41;;;;;;;;;;;;;;;;;;5091857;27;19919;-69
2022/05/21 06:36:07;;;;;;;;;;;;;;;;;;5090819;28;20434;-69
2022/05/21 06:38:34;;;;;;;;;;;;;;;;;;5091355;28;19954;-69
2022/05/21 06:44:44;;;;;;;;;;;;;;;;;;5091072;28;19916;-69
2022/05/21 06:47:10;;;;;;;;;;;;;;;;;;5091330;28;20340;-68
2022/05/21 06:49:36;;;;;;;;;;;;;;;;;;5091198;28;20401;-69
2022/05/21 06:52:02;;;;;;;;;;;;;;;;;;5090803;28;19908;-70
2022/05/21 07:00:25;;;;;;;;;;;;;;;;;;5091367;28;19938;-69
2022/05/21 07:11:10;;;;;;;;;;;;;;;;;;5090984;27;19917;-70
2022/05/21 07:15:24;;;;;;;;;;;;;;;;;;5091925;27;19917;-69
2022/05/21 07:18:13;;;;;;;;;;;;;;;;;;5071336;28;19974;-69
2022/05/21 07:20:39;;;;;;;;;;;;;;;;;;5071043;28;20404;-69
2022/05/21 07:28:41;;;;;;;;;;;;;;;;;;5091558;27;19923;-69
2022/05/21 07:31:07;;;;;;;;;;;;;;;;;;5091413;28;19999;-69
2022/05/21 07:34:50;;;;;;;;;;;;;;;;;;5091437;27;19916;-69
2022/05/21 07:37:16;;;;;;;;;;;;;;;;;;5089990;28;20392;-69
2022/05/21 07:39:42;;;;;;;;;;;;;;;;;;5090814;28;19909;-69
2022/05/21 07:44:33;;;;;;;;;;;;;;;;;;5092131;27;19912;-69
2022/05/21 07:46:59;;;;;;;;;;;;;;;;;;5090853;28;20007;-69
2022/05/21 07:49:25;;;;;;;;;;;;;;;;;;5091455;28;20365;-69
2022/05/21 07:51:51;;;;;;;;;;;;;;;;;;5090998;28;20233;-69
2022/05/21 07:57:18;;;;;;;;;;;;;;;;;;5092028;27;20009;-69
2022/05/21 08:00:52;;;;;;;;;;;;;;;;;;5070885;28;19923;-68
2022/05/21 08:04:09;;;;;;;;;;;;;;;;;;5091488;27;19912;-69
2022/05/21 08:06:35;;;;;;;;;;;;;;;;;;5091171;28;20008;-69
2022/05/21 08:09:01;;;;;;;;;;;;;;;;;;5090848;28;19952;-69
2022/05/21 08:12:18;;;;;;;;;;;;;;;;;;5112429;27;20265;-68
2022/05/21 08:14:44;;;;;;;;;;;;;;;;;;5111169;28;19919;-69
2022/05/21 08:17:10;;;;;;;;;;;;;;;;;;5111867;28;19915;-69
2022/05/21 08:19:36;;;;;;;;;;;;;;;;;;5111605;28;19961;-69
2022/05/21 08:27:40;;;;;;;;;;;;;;;;;;5091829;27;19922;-68
2022/05/21 08:30:06;;;;;;;;;;;;;;;;;;5090904;28;20002;-68
2022/05/21 08:34:01;;;;;;;;;;;;;;;;;;5091496;28;19916;-68
2022/05/21 08:36:27;;;;;;;;;;;;;;;;;;5091044;28;19912;-68
2022/05/21 08:40:58;;;;;;;;;;;;;;;;;;5091407;27;19922;-69
2022/05/21 08:43:24;;;;;;;;;;;;;;;;;;5090782;28;19912;-69
2022/05/21 08:45:50;;;;;;;;;;;;;;;;;;5091039;28;20280;-69
2022/05/21 08:48:16;;;;;;;;;;;;;;;;;;5089869;28;19909;-68
2022/05/21 08:50:42;;;;;;;;;;;;;;;;;;5090993;28;19912;-69
2022/05/21 08:53:09;;;;;;;;;;;;;;;;;;5091216;28;20004;-69
2022/05/21 08:55:35;;;;;;;;;;;;;;;;;;5090974;28;19909;-69
2022/05/21 08:58:00;;;;;;;;;;;;;;;;;;5090574;28;19915;-68
2022/05/21 09:00:26;;;;;;;;;;;;;;;;;;5090723;28;19916;-69
2022/05/21 09:02:54;;;;;;;;;;;;;;;;;;5090853;28;19956;-69
2022/05/21 09:06:17;;;;;;;;;;;;;;;;;;5112456;27;19916;-69
2022/05/21 09:08:43;;;;;;;;;;;;;;;;;;5111586;28;20340;-69
2022/05/21 09:11:11;;;;;;;;;;;;;;;;;;5111155;28;19908;-69
2022/05/21 09:13:52;;;;;;;;;;;;;;;;;;5091575;27;19919;-68
2022/05/21 09:19:03;;;;;;;;;;;;;;;;;;5090853;28;20430;-69
2022/05/21 09:21:29;;;;;;;;;;;;;;;;;;5091210;28;19959;-69
2022/05/21 09:23:55;;;;;;;;;;;;;;;;;;5091137;28;19944;-69
2022/05/21 09:26:21;;;;;;;;;;;;;;;;;;5090679;28;19915;-69
2022/05/21 09:28:48;;;;;;;;;;;;;;;;;;5090904;28;20414;-69
2022/05/21 09:31:14;;;;;;;;;;;;;;;;;;5091482;28;20367;-69
2022/05/21 09:33:40;;;;;;;;;;;;;;;;;;5090449;28;19947;-68
2022/05/21 09:36:06;;;;;;;;;;;;;;;;;;5090940;28;19999;-69
2022/05/21 09:38:32;;;;;;;;;;;;;;;;;;5089585;28;19954;-69
2022/05/21 09:40:58;;;;;;;;;;;;;;;;;;5091076;28;19950;-69
2022/05/21 09:46:09;;;;;;;;;;;;;;;;;;5090281;28;19998;-69
2022/05/21 09:48:35;;;;;;;;;;;;;;;;;;5090574;28;19918;-69
2022/05/21 09:51:01;;;;;;;;;;;;;;;;;;5090628;28;19915;-69
2022/05/21 09:53:27;;;;;;;;;;;;;;;;;;5089986;28;19916;-68
2022/05/21 09:55:53;;;;;;;;;;;;;;;;;;5090549;28;19958;-69
2022/05/21 09:58:19;;;;;;;;;;;;;;;;;;5090433;28;19958;-69
2022/05/21 10:00:45;;;;;;;;;;;;;;;;;;5090020;28;19915;-69
2022/05/21 10:03:12;;;;;;;;;;;;;;;;;;5090595;28;20294;-69
2022/05/21 10:05:38;;;;;;;;;;;;;;;;;;5090278;28;19913;-69
2022/05/21 10:11:02;;;;;;;;;;;;;;;;;;5090236;28;19961;-70
2022/05/21 10:13:28;;;;;;;;;;;;;;;;;;5090053;28;19978;-69
2022/05/21 10:15:54;;;;;;;;;;;;;;;;;;5089721;28;20277;-69
2022/05/21 10:18:20;;;;;;;;;;;;;;;;;;5090095;28;19912;-69
2022/05/21 10:20:46;;;;;;;;;;;;;;;;;;5089680;28;19908;-69
2022/05/21 10:23:37;;;;;;;;;;;;;;;;;;5091385;27;20291;-70
2022/05/21 10:26:03;;;;;;;;;;;;;;;;;;5091285;28;19999;-70
2022/05/21 10:28:29;;;;;;;;;;;;;;;;;;5090698;28;19999;-69
2022/05/21 10:30:55;;;;;;;;;;;;;;;;;;5090975;28;19995;-69
2022/05/21 10:33:23;;;;;;;;;;;;;;;;;;5091015;28;19919;-69
2022/05/21 10:35:49;;;;;;;;;;;;;;;;;;5090558;28;19915;-70
2022/05/21 10:38:14;;;;;;;;;;;;;;;;;;5090961;28;19909;-70
2022/05/21 10:40:40;;;;;;;;;;;;;;;;;;5090880;28;19961;-70
2022/05/21 10:43:06;;;;;;;;;;;;;;;;;;5090504;28;19920;-70
2022/05/21 10:45:33;;;;;;;;;;;;;;;;;;5090839;28;19912;-70
2022/05/21 10:47:59;;;;;;;;;;;;;;;;;;5090720;28;19951;-70
2022/05/21 10:50:25;;;;;;;;;;;;;;;;;;5090625;28;19954;-70
2022/05/21 10:52:51;;;;;;;;;;;;;;;;;;5090603;28;20007;-70
2022/05/21 10:55:17;;;;;;;;;;;;;;;;;;5090606;28;20434;-71
2022/05/21 10:57:43;;;;;;;;;;;;;;;;;;5090190;28;20269;-70
2022/05/21 11:00:09;;;;;;;;;;;;;;;;;;5090601;28;19909;-70
2022/05/21 11:02:35;;;;;;;;;;;;;;;;;;5090632;28;19917;-69
2022/05/21 11:05:01;;;;;;;;;;;;;;;;;;5090008;28;20334;-70
2022/05/21 11:07:27;;;;;;;;;;;;;;;;;;5090502;28;19919;-70
2022/05/21 11:09:52;;;;;;;;;;;;;;;;;;5090446;28;19918;-70
2022/05/21 11:12:18;;;;;;;;;;;;;;;;;;5090025;28;19998;-70
2022/05/21 11:14:44;;;;;;;;;;;;;;;;;;5090365;28;19909;-70
2022/05/21 11:17:10;;;;;;;;;;;;;;;;;;5090041;28;19994;-70
2022/05/21 11:19:36;;;;;;;;;;;;;;;;;;5090232;28;20006;-70
2022/05/21 11:22:02;;;;;;;;;;;;;;;;;;5090000;28;19927;-70
2022/05/21 11:24:28;;;;;;;;;;;;;;;;;;5089689;28;19909;-70
2022/05/21 11:26:54;;;;;;;;;;;;;;;;;;5090161;28;19908;-71
2022/05/21 11:29:22;;;;;;;;;;;;;;;;;;5090089;28;19991;-70
2022/05/21 11:37:21;;;;;;;;;;;;;;;;;;5076424;28;20338;-70
2022/05/21 11:39:47;;;;;;;;;;;;;;;;;;5076004;28;19919;-70
2022/05/21 11:42:14;;;;;;;;;;;;;;;;;;5076059;28;19916;-70
2022/05/21 11:44:55;;;;;;;;;;;;;;;;;;5076213;28;19943;-70
2022/05/21 11:47:21;;;;;;;;;;;;;;;;;;5075881;28;20311;-70
2022/05/21 11:49:47;;;;;;;;;;;;;;;;;;5076397;28;19912;-70
2022/05/21 11:52:13;;;;;;;;;;;;;;;;;;5075751;28;20264;-70
2022/05/21 11:54:39;;;;;;;;;;;;;;;;;;5076131;28;19908;-70
2022/05/21 11:57:05;;;;;;;;;;;;;;;;;;5076080;28;19948;-70
2022/05/21 11:59:31;;;;;;;;;;;;;;;;;;5075630;28;19978;-70
2022/05/21 12:02:00;;;;;;;;;;;;;;;;;;5075890;28;20011;-70
2022/05/21 12:04:26;;;;;;;;;;;;;;;;;;5075929;28;19916;-70
2022/05/21 12:06:52;;;;;;;;;;;;;;;;;;5075594;28;19962;-70
2022/05/21 12:09:18;;;;;;;;;;;;;;;;;;5075817;28;19908;-70
2022/05/21 12:11:44;;;;;;;;;;;;;;;;;;5075756;28;19943;-70
2022/05/21 12:14:10;;;;;;;;;;;;;;;;;;5075448;28;19909;-70
2022/05/21 12:16:36;;;;;;;;;;;;;;;;;;5075676;28;19954;-70
2022/05/21 12:19:02;;;;;;;;;;;;;;;;;;5074391;28;19909;-70
2022/05/21 12:21:37;;;;;;;;;;;;;;;;;;5075294;28;19916;-70
2022/05/21 12:24:03;;;;;;;;;;;;;;;;;;5075688;28;19987;-70
2022/05/21 12:26:30;;;;;;;;;;;;;;;;;;5075740;28;20391;-70
2022/05/21 12:28:56;;;;;;;;;;;;;;;;;;5075311;28;20295;-71
2022/05/21 12:31:22;;;;;;;;;;;;;;;;;;5075406;28;19934;-70
2022/05/21 12:33:49;;;;;;;;;;;;;;;;;;5075850;28;20269;-70
2022/05/21 12:36:15;;;;;;;;;;;;;;;;;;5074889;28;19908;-70
2022/05/21 12:38:43;;;;;;;;;;;;;;;;;;5075235;28;19909;-70
2022/05/21 12:41:09;;;;;;;;;;;;;;;;;;5073867;28;19919;-70
2022/05/21 12:43:35;;;;;;;;;;;;;;;;;;5074714;28;19920;-70
2022/05/21 12:46:01;;;;;;;;;;;;;;;;;;5074166;28;20361;-71
2022/05/21 12:48:27;;;;;;;;;;;;;;;;;;5074942;28;19913;-70
2022/05/21 12:50:53;;;;;;;;;;;;;;;;;;5075236;28;19915;-70
2022/05/21 12:53:19;;;;;;;;;;;;;;;;;;5074805;28;19909;-70
2022/05/21 12:55:45;;;;;;;;;;;;;;;;;;5074489;28;19908;-70
2022/05/21 12:58:11;;;;;;;;;;;;;;;;;;5074885;28;19909;-70
2022/05/21 13:00:37;;;;;;;;;;;;;;;;;;5074956;28;19951;-70
2022/05/21 13:03:03;;;;;;;;;;;;;;;;;;5074346;28;19920;-70
2022/05/21 13:05:29;;;;;;;;;;;;;;;;;;5074701;28;19909;-70
2022/05/21 13:07:55;;;;;;;;;;;;;;;;;;5074845;28;20039;-70
2022/05/21 13:10:21;;;;;;;;;;;;;;;;;;5074144;28;20003;-70
2022/05/21 13:12:47;;;;;;;;;;;;;;;;;;5074482;28;19978;-70
2022/05/21 13:15:13;;;;;;;;;;;;;;;;;;5074730;28;19908;-70
2022/05/21 13:17:39;;;;;;;;;;;;;;;;;;5074078;28;19908;-70
2022/05/21 13:20:10;;;;;;;;;;;;;;;;;;5074350;28;19920;-70
2022/05/21 13:22:36;;;;;;;;;;;;;;;;;;5074353;28;19921;-70
2022/05/21 13:25:02;;;;;;;;;;;;;;;;;;5074038;28;19915;-70
2022/05/21 13:27:28;;;;;;;;;;;;;;;;;;5074611;28;19909;-70
2022/05/21 13:29:54;;;;;;;;;;;;;;;;;;5074217;28;20423;-71
2022/05/21 13:32:21;;;;;;;;;;;;;;;;;;5073795;28;20277;-70
2022/05/21 13:34:47;;;;;;;;;;;;;;;;;;5074160;28;20325;-70
2022/05/21 13:37:13;;;;;;;;;;;;;;;;;;5074344;28;19909;-71
2022/05/21 13:39:39;;;;;;;;;;;;;;;;;;5073560;28;20419;-71
2022/05/21 13:42:05;;;;;;;;;;;;;;;;;;5073859;28;19920;-69
2022/05/21 13:44:31;;;;;;;;;;;;;;;;;;5074084;28;19912;-69
2022/05/21 13:46:57;;;;;;;;;;;;;;;;;;5073552;28;20395;-70
2022/05/21 13:49:23;;;;;;;;;;;;;;;;;;5074456;28;20342;-70
2022/05/21 13:51:49;;;;;;;;;;;;;;;;;;5073632;28;19913;-70
2022/05/21 13:54:15;;;;;;;;;;;;;;;;;;5073918;28;19935;-70
2022/05/21 13:56:42;;;;;;;;;;;;;;;;;;5073615;28;19912;-70
2022/05/21 13:59:08;;;;;;;;;;;;;;;;;;5073376;28;19912;-70
2022/05/21 14:01:36;;;;;;;;;;;;;;;;;;5073650;28;20279;-70
2022/05/21 14:04:02;;;;;;;;;;;;;;;;;;5073767;28;19912;-70
2022/05/21 14:06:28;;;;;;;;;;;;;;;;;;5073343;28;20383;-70
2022/05/21 14:08:54;;;;;;;;;;;;;;;;;;5073667;28;19913;-70
2022/05/21 14:11:20;;;;;;;;;;;;;;;;;;5073693;28;19912;-70
2022/05/21 14:13:47;;;;;;;;;;;;;;;;;;5073322;28;19908;-70
2022/05/21 14:16:13;;;;;;;;;;;;;;;;;;5073705;28;20046;-70
2022/05/21 14:18:42;;;;;;;;;;;;;;;;;;5073643;28;19995;-70
2022/05/21 14:21:08;;;;;;;;;;;;;;;;;;5073360;28;19909;-70
2022/05/21 14:23:34;;;;;;;;;;;;;;;;;;5073377;28;19927;-70
2022/05/21 14:26:00;;;;;;;;;;;;;;;;;;5073706;28;19909;-70
2022/05/21 14:28:26;;;;;;;;;;;;;;;;;;5073086;28;20022;-70
2022/05/21 14:30:53;;;;;;;;;;;;;;;;;;5073552;28;19909;-70
2022/05/21 14:33:19;;;;;;;;;;;;;;;;;;5073520;28;19909;-70
2022/05/21 14:35:45;;;;;;;;;;;;;;;;;;5073092;28;19909;-70
2022/05/21 14:38:11;;;;;;;;;;;;;;;;;;5072223;28;20014;-70
2022/05/21 14:40:37;;;;;;;;;;;;;;;;;;5073658;28;19999;-70
2022/05/21 14:43:02;;;;;;;;;;;;;;;;;;5072963;28;20023;-70
2022/05/21 14:45:28;;;;;;;;;;;;;;;;;;5073411;28;19916;-70
2022/05/21 14:47:54;;;;;;;;;;;;;;;;;;5073377;28;19908;-70
2022/05/21 14:53:05;;;;;;;;;;;;;;;;;;5073420;28;20236;-70
2022/05/21 14:55:32;;;;;;;;;;;;;;;;;;5072855;28;19915;-70
2022/05/21 14:57:58;;;;;;;;;;;;;;;;;;5073506;28;20319;-71
2022/05/21 15:00:24;;;;;;;;;;;;;;;;;;5073255;28;19912;-71
2022/05/21 15:02:50;;;;;;;;;;;;;;;;;;5072763;28;20392;-71
2022/05/21 15:05:16;;;;;;;;;;;;;;;;;;5073314;28;20365;-71
2022/05/21 15:07:46;;;;;;;;;;;;;;;;;;5073078;28;20254;-71
2022/05/21 15:10:12;;;;;;;;;;;;;;;;;;5076118;28;20321;-71
2022/05/21 15:12:38;;;;;;;;;;;;;;;;;;5076875;28;19908;-71
2022/05/21 15:15:04;;;;;;;;;;;;;;;;;;5077020;28;20388;-71
2022/05/21 15:17:30;;;;;;;;;;;;;;;;;;5076534;28;19908;-71
2022/05/21 15:19:56;;;;;;;;;;;;;;;;;;5076727;28;19909;-71
2022/05/21 15:22:22;;;;;;;;;;;;;;;;;;5076460;28;19966;-71
2022/05/21 15:24:48;;;;;;;;;;;;;;;;;;5076324;28;20407;-71
2022/05/21 15:27:14;;;;;;;;;;;;;;;;;;5076702;28;19909;-71
2022/05/21 15:29:41;;;;;;;;;;;;;;;;;;5076496;28;19995;-71
2022/05/21 15:32:08;;;;;;;;;;;;;;;;;;5076140;28;19998;-71
2022/05/21 15:34:34;;;;;;;;;;;;;;;;;;5076512;28;19916;-71
2022/05/21 15:37:00;;;;;;;;;;;;;;;;;;5076545;28;19908;-70
2022/05/21 15:39:25;;;;;;;;;;;;;;;;;;5076057;28;19943;-69
2022/05/21 15:41:51;;;;;;;;;;;;;;;;;;5076308;28;20015;-70
2022/05/21 15:44:18;;;;;;;;;;;;;;;;;;5076388;28;19916;-70
2022/05/21 15:46:43;;;;;;;;;;;;;;;;;;5076502;28;19995;-70
2022/05/21 15:49:11;;;;;;;;;;;;;;;;;;5076566;28;19959;-69
2022/05/21 15:51:37;;;;;;;;;;;;;;;;;;5075675;28;19912;-69
2022/05/21 15:54:03;;;;;;;;;;;;;;;;;;5076261;28;20012;-70
2022/05/21 15:56:29;;;;;;;;;;;;;;;;;;5074825;28;19916;-69
2022/05/21 15:58:55;;;;;;;;;;;;;;;;;;5075609;28;19912;-69
2022/05/21 16:01:21;;;;;;;;;;;;;;;;;;5074656;28;19955;-69
2022/05/21 16:03:49;;;;;;;;;;;;;;;;;;5075989;28;19938;-69
2022/05/21 16:06:15;;;;;;;;;;;;;;;;;;5075414;28;19912;-69
2022/05/21 16:08:41;;;;;;;;;;;;;;;;;;5075762;28;20371;-69
2022/05/21 16:11:07;;;;;;;;;;;;;;;;;;5074485;28;20361;-71
2022/05/21 16:13:35;;;;;;;;;;;;;;;;;;5075349;28;20050;-69
2022/05/21 16:16:01;;;;;;;;;;;;;;;;;;5076076;28;19909;-68
2022/05/21 16:18:27;;;;;;;;;;;;;;;;;;5075616;28;19937;-70
2022/05/21 16:20:53;;;;;;;;;;;;;;;;;;5075200;28;20011;-70
2022/05/21 16:23:19;;;;;;;;;;;;;;;;;;5075307;28;19920;-70
2022/05/21 16:25:45;;;;;;;;;;;;;;;;;;5075581;28;19915;-71
2022/05/21 16:28:11;;;;;;;;;;;;;;;;;;5075193;28;19909;-71
2022/05/21 16:30:37;;;;;;;;;;;;;;;;;;5075476;28;19943;-70
2022/05/21 16:33:03;;;;;;;;;;;;;;;;;;5074243;28;19962;-70
2022/05/21 16:35:29;;;;;;;;;;;;;;;;;;5074907;28;19913;-70
2022/05/21 16:37:55;;;;;;;;;;;;;;;;;;5075256;28;19908;-70
2022/05/21 16:40:21;;;;;;;;;;;;;;;;;;5075244;28;19909;-70
2022/05/21 16:42:46;;;;;;;;;;;;;;;;;;5074624;28;19946;-70
2022/05/21 16:45:12;;;;;;;;;;;;;;;;;;5075290;28;19908;-70
2022/05/21 16:47:38;;;;;;;;;;;;;;;;;;5074816;28;19916;-70
2022/05/21 16:50:04;;;;;;;;;;;;;;;;;;5075582;28;20312;-70
2022/05/21 16:52:30;;;;;;;;;;;;;;;;;;5075364;28;19913;-70
2022/05/21 16:54:57;;;;;;;;;;;;;;;;;;5074628;28;19931;-69
2022/05/21 16:57:23;;;;;;;;;;;;;;;;;;5074843;28;19945;-69
2022/05/21 16:59:49;;;;;;;;;;;;;;;;;;5074794;28;19966;-70
2022/05/21 17:02:15;;;;;;;;;;;;;;;;;;5074271;28;19913;-69
2022/05/21 17:04:41;;;;;;;;;;;;;;;;;;5074760;28;19909;-70
2022/05/21 17:07:07;;;;;;;;;;;;;;;;;;5074673;28;20288;-70
2022/05/21 17:09:33;;;;;;;;;;;;;;;;;;5074247;28;20021;-70
2022/05/21 17:13:34;;;;;;;;;;;;;;;;;;5092114;28;19922;-69
2022/05/21 17:16:00;;;;;;;;;;;;;;;;;;5090809;28;20007;-70
2022/05/21 17:18:26;;;;;;;;;;;;;;;;;;5091114;28;19954;-70
2022/05/21 17:20:52;;;;;;;;;;;;;;;;;;5091319;28;20353;-70
2022/05/21 17:23:19;;;;;;;;;;;;;;;;;;5090588;28;19991;-70
2022/05/21 17:25:45;;;;;;;;;;;;;;;;;;5091078;28;19982;-70
2022/05/21 17:30:57;;;;;;;;;;;;;;;;;;5090389;28;19915;-70
2022/05/21 17:34:29;;;;;;;;;;;;;;;;;;5091563;28;19923;-69
2022/05/21 17:36:55;;;;;;;;;;;;;;;;;;5090637;28;20011;-70
2022/05/21 17:39:21;;;;;;;;;;;;;;;;;;5091018;28;19914;-70
2022/05/21 17:41:47;;;;;;;;;;;;;;;;;;5090961;28;20348;-70
2022/05/21 17:44:13;;;;;;;;;;;;;;;;;;5090703;28;19919;-70
2022/05/21 17:46:39;;;;;;;;;;;;;;;;;;5090868;28;19912;-70
2022/05/21 17:49:05;;;;;;;;;;;;;;;;;;5091438;28;19909;-70
2022/05/21 17:51:31;;;;;;;;;;;;;;;;;;5090709;28;19915;-70
2022/05/21 17:53:57;;;;;;;;;;;;;;;;;;5090766;28;19924;-70
2022/05/21 17:56:23;;;;;;;;;;;;;;;;;;5090710;28;19908;-70
2022/05/21 17:58:50;;;;;;;;;;;;;;;;;;5090766;28;19920;-70
2022/05/21 18:01:16;;;;;;;;;;;;;;;;;;5091283;28;19919;-70
2022/05/21 18:03:42;;;;;;;;;;;;;;;;;;5090626;28;20003;-71
2022/05/21 18:06:08;;;;;;;;;;;;;;;;;;5090290;28;19909;-71
2022/05/21 18:09:01;;;;;;;;;;;;;;;;;;5091581;27;19916;-69
2022/05/21 18:11:29;;;;;;;;;;;;;;;;;;5091120;28;20347;-70
2022/05/21 18:13:55;;;;;;;;;;;;;;;;;;5090652;28;19962;-70
2022/05/21 18:19:21;;;;;;;;;;;;;;;;;;5090619;28;19916;-70
2022/05/21 18:21:47;;;;;;;;;;;;;;;;;;5089750;28;19935;-70
2022/05/21 18:24:13;;;;;;;;;;;;;;;;;;5090943;28;19998;-71